createdAt,value
2024-01-15T00:04:00.442Z,97582.63
2024-01-15T00:09:22.402Z,97578.34
2024-01-15T00:14:44.250Z,97570.47
2024-01-15T00:20:06.909Z,97566.22
2024-01-15T00:25:28.853Z,97563.66
2024-01-15T00:30:50.800Z,97564.84
2024-01-15T00:36:12.801Z,97562.38
2024-01-15T00:41:34.673Z,97554.19
2024-01-15T00:46:56.464Z,97557.53
2024-01-15T00:52:18.348Z,97563.75
2024-01-15T01:59:35.770Z,97555.63
2024-01-15T02:04:57.945Z,97537.81
2024-01-15T02:10:19.853Z,97549.59
2024-01-15T02:15:41.954Z,97545.22
2024-01-15T02:21:04.041Z,97539.56
2024-01-15T02:26:26.125Z,97539.75
2024-01-15T02:31:48.044Z,97540.81
2024-01-15T02:37:09.894Z,97533.78
2024-01-15T02:42:31.730Z,97532.28
2024-01-15T02:47:53.549Z,97529.06
2024-01-15T02:53:15.440Z,97522.16
2024-01-15T02:58:37.240Z,97528.84
2024-01-15T03:03:59.164Z,97531.84
2024-01-15T03:09:21.020Z,97512.09
2024-01-15T03:14:43.838Z,97511.16
2024-01-15T03:20:06.255Z,97513.72
2024-01-15T03:25:28.109Z,97507.78
2024-01-15T03:30:50.055Z,97512.00
2024-01-15T03:36:12.192Z,97505.22
2024-01-15T03:41:34.052Z,97502.25
2024-01-15T03:46:56.061Z,97493.06
2024-01-15T03:52:17.846Z,97492.50
2024-01-15T03:57:39.840Z,97491.03
2024-01-15T04:03:01.675Z,97490.97
2024-01-15T04:08:23.475Z,97490.91
2024-01-15T04:13:45.261Z,97482.09
2024-01-15T04:19:07.403Z,97461.56
2024-01-15T04:24:29.397Z,97465.69
2024-01-15T04:29:51.305Z,97467.22
2024-01-15T04:35:13.828Z,97454.03
2024-01-15T04:40:36.628Z,97457.75
2024-01-15T04:45:58.658Z,97445.16
2024-01-15T04:51:20.542Z,97458.63
2024-01-15T04:56:42.348Z,97461.56
2024-01-15T05:02:04.351Z,97439.53
2024-01-15T05:07:26.254Z,97439.38
2024-01-15T05:12:48.107Z,97439.44
2024-01-15T05:18:10.267Z,97424.56
2024-01-15T05:23:32.599Z,97432.72
2024-01-15T05:28:54.448Z,97426.78
2024-01-15T05:34:16.266Z,97420.88
2024-01-15T05:39:38.183Z,97413.47
2024-01-15T05:45:00.753Z,97404.72
2024-01-15T05:50:23.266Z,97403.75
2024-01-15T05:55:45.039Z,97404.63
2024-01-15T06:01:06.909Z,97424.28
2024-01-15T06:06:28.751Z,97428.63
2024-01-15T06:11:50.786Z,97419.13
2024-01-15T06:17:12.652Z,97425.25
2024-01-15T06:22:34.669Z,97430.31
2024-01-15T06:27:56.625Z,97420.03
2024-01-15T06:33:18.621Z,97413.13
2024-01-15T06:38:40.507Z,97390.72
2024-01-15T06:44:02.285Z,97397.78
2024-01-15T06:49:24.571Z,97385.00
2024-01-15T06:54:46.547Z,97388.34
2024-01-15T07:00:09.389Z,97381.59
2024-01-15T07:05:31.939Z,97384.06
2024-01-15T07:10:53.878Z,97383.94
2024-01-15T07:16:22.476Z,97385.06
2024-01-15T07:21:54.744Z,97378.16
2024-01-15T07:27:18.300Z,97393.69
2024-01-15T07:32:41.991Z,97390.66
2024-01-15T07:38:03.954Z,97397.53
2024-01-15T07:43:25.743Z,97394.84
2024-01-15T07:48:47.764Z,97413.22
2024-01-15T07:54:09.719Z,97402.84
2024-01-15T07:59:31.662Z,97404.06
2024-01-15T08:04:53.552Z,97400.50
2024-01-15T08:10:15.675Z,97411.28
2024-01-15T08:15:37.649Z,97413.84
2024-01-15T08:20:59.661Z,97411.41
2024-01-15T08:26:22.540Z,97407.00
2024-01-15T08:31:44.471Z,97404.94
2024-01-15T08:37:06.333Z,97407.03
2024-01-15T08:42:28.151Z,97397.38
2024-01-15T08:47:50.080Z,97405.69
2024-01-15T08:53:11.971Z,97413.78
2024-01-15T08:58:33.821Z,97413.31
2024-01-15T09:03:55.828Z,97428.25
2024-01-15T09:09:19.126Z,97422.09
2024-01-15T09:14:41.037Z,97417.63
2024-01-15T09:20:05.438Z,97401.00
2024-01-15T09:25:27.353Z,97386.69
2024-01-15T09:30:49.302Z,97386.38
2024-01-15T09:36:11.253Z,97375.22
2024-01-15T09:41:33.150Z,97379.16
2024-01-15T09:46:57.023Z,97389.28
2024-01-15T09:52:20.427Z,97381.38
2024-01-15T09:57:43.127Z,97376.94
2024-01-15T10:03:06.014Z,97372.03
2024-01-15T10:08:27.872Z,97358.84
2024-01-15T10:13:56.793Z,97361.59
2024-01-15T10:19:19.625Z,97354.06
2024-01-15T10:24:42.199Z,97349.56
2024-01-15T10:30:04.612Z,97344.94
2024-01-15T10:35:36.084Z,97343.53
2024-01-15T10:40:58.259Z,97323.03
2024-01-15T10:46:20.083Z,97321.38
2024-01-15T10:51:43.528Z,97304.78
2024-01-15T10:57:06.512Z,97303.06
2024-01-15T11:02:29.226Z,97296.78
2024-01-15T11:07:51.139Z,97303.19
2024-01-15T11:13:15.791Z,97302.50
2024-01-15T11:18:42.658Z,97309.88
2024-01-15T11:24:07.923Z,97304.22
2024-01-15T11:29:31.080Z,97285.31
2024-01-15T11:34:59.212Z,97292.03
2024-01-15T11:40:38.758Z,97276.44
2024-01-15T11:46:03.867Z,97276.03
2024-01-15T11:51:25.920Z,97278.09
2024-01-15T11:56:48.137Z,97282.59
2024-01-15T12:02:12.693Z,97285.50
2024-01-15T12:07:34.906Z,97270.38
2024-01-15T12:13:13.566Z,97276.88
2024-01-15T12:18:35.522Z,97274.22
2024-01-15T12:23:57.430Z,97286.16
2024-01-15T12:29:19.605Z,97285.81
2024-01-15T12:34:41.555Z,97281.53
2024-01-15T12:40:05.617Z,97284.44
2024-01-15T12:45:27.719Z,97292.97
2024-01-15T12:50:53.302Z,97302.97
2024-01-15T12:56:15.122Z,97296.75
2024-01-15T13:01:37.292Z,97305.13
2024-01-15T13:06:59.293Z,97298.06
2024-01-15T13:12:21.782Z,97318.06
2024-01-15T13:17:44.850Z,97325.66
2024-01-15T13:23:06.963Z,97329.59
2024-01-15T13:28:28.798Z,97331.31
2024-01-15T13:33:50.826Z,97335.38
2024-01-15T13:39:12.754Z,97331.16
2024-01-15T13:44:34.754Z,97339.38
2024-01-15T13:49:56.601Z,97353.38
2024-01-15T13:55:18.717Z,97361.22
2024-01-15T14:00:44.494Z,97362.53
2024-01-15T14:06:09.965Z,97367.81
2024-01-15T14:11:32.326Z,97371.41
2024-01-15T14:16:54.112Z,97379.81
2024-01-15T14:22:16.000Z,97389.66
2024-01-15T14:27:37.954Z,97395.25
2024-01-15T14:33:01.241Z,97411.44
2024-01-15T14:38:23.706Z,97425.50
2024-01-15T14:43:46.006Z,97441.88
2024-01-15T14:49:07.913Z,97461.66
2024-01-15T14:54:29.812Z,97465.13
2024-01-15T14:59:51.598Z,97482.75
2024-01-15T15:05:14.729Z,97483.97
2024-01-15T15:10:37.007Z,97498.59
2024-01-15T15:15:58.898Z,97501.25
2024-01-15T15:21:20.763Z,97509.72
2024-01-15T15:26:42.651Z,97522.47
2024-01-15T15:32:04.750Z,97538.56
2024-01-15T15:37:26.953Z,97526.34
2024-01-15T15:42:48.773Z,97547.81
2024-01-15T15:48:10.803Z,97546.03
2024-01-15T15:53:32.689Z,97555.41
2024-01-15T15:58:54.549Z,97557.19
2024-01-15T16:04:16.849Z,97576.75
2024-01-15T16:09:38.918Z,97582.44
2024-01-15T16:15:02.204Z,97585.28
2024-01-15T16:23:30.404Z,97591.88
2024-01-15T16:26:07.956Z,97616.31
2024-01-15T16:31:30.092Z,97595.97
2024-01-15T16:36:52.285Z,97597.38
2024-01-15T16:42:14.244Z,97612.06
2024-01-15T16:47:36.176Z,97630.06
2024-01-15T16:52:58.404Z,97630.09
2024-01-15T16:58:20.311Z,97635.22
2024-01-15T17:03:42.319Z,97639.56
2024-01-15T17:09:04.216Z,97641.06
2024-01-15T17:14:26.062Z,97642.84
2024-01-15T17:19:48.319Z,97648.56
2024-01-15T17:25:10.168Z,97662.81
2024-01-15T17:30:31.941Z,97666.50
2024-01-15T17:35:56.119Z,97667.41
2024-01-15T17:41:18.064Z,97683.25
2024-01-15T17:46:40.322Z,97691.53
2024-01-15T17:52:02.694Z,97692.19
2024-01-15T17:57:24.561Z,97699.16
2024-01-15T18:02:49.949Z,97712.75
2024-01-15T18:08:14.629Z,97724.72
2024-01-15T18:13:36.434Z,97736.31
2024-01-15T18:19:01.087Z,97738.28
2024-01-15T18:24:23.026Z,97730.75
2024-01-15T18:29:45.216Z,97743.97
2024-01-15T18:35:07.492Z,97740.75
2024-01-15T18:40:35.774Z,97752.84
2024-01-15T18:45:57.593Z,97755.69
2024-01-15T18:51:25.718Z,97739.91
2024-01-15T18:56:47.672Z,97755.19
2024-01-15T19:02:09.691Z,97747.97
2024-01-15T19:07:33.937Z,97748.94
2024-01-15T19:12:56.232Z,97763.44
2024-01-15T19:18:18.181Z,97761.47
2024-01-15T19:23:40.366Z,97762.38
2024-01-15T19:29:02.227Z,97765.53
2024-01-15T19:34:24.175Z,97774.25
2024-01-15T19:39:45.976Z,97772.53
2024-01-15T19:45:08.236Z,97777.34
2024-01-15T19:50:30.233Z,97791.88
2024-01-15T19:55:52.176Z,97796.38
2024-01-15T20:01:14.136Z,97803.94
2024-01-15T20:06:36.138Z,97805.72
2024-01-15T20:11:58.107Z,97824.72
2024-01-15T20:17:19.946Z,97828.72
2024-01-15T20:22:41.846Z,97828.84
2024-01-15T20:28:03.908Z,97847.28
2024-01-15T20:33:26.005Z,97858.03
2024-01-15T20:38:47.919Z,97868.16
2024-01-15T20:44:10.350Z,97881.84
2024-01-15T20:49:32.247Z,97874.88
2024-01-15T20:54:54.207Z,97878.50
2024-01-15T21:00:16.616Z,97883.47
2024-01-15T21:05:38.467Z,97890.41
2024-01-15T21:11:01.032Z,97888.78
2024-01-15T21:16:26.244Z,97894.16
2024-01-15T21:21:49.011Z,97892.81
2024-01-15T21:27:10.845Z,97905.81
2024-01-15T21:32:32.591Z,97900.88
2024-01-15T21:37:54.563Z,97901.06
2024-01-15T21:43:16.449Z,97901.94
2024-01-15T21:48:41.281Z,97921.94
2024-01-15T21:54:04.819Z,97924.72
2024-01-15T21:59:27.357Z,97922.78
2024-01-15T22:04:49.224Z,97932.09
2024-01-15T22:10:11.777Z,97934.91
2024-01-15T22:15:33.620Z,97954.59
2024-01-15T22:20:57.400Z,97952.16
2024-01-15T22:26:19.287Z,97955.72
2024-01-15T22:31:42.365Z,97958.97
2024-01-15T22:37:05.709Z,97965.09
2024-01-15T22:42:27.739Z,97974.28
2024-01-15T22:47:49.817Z,97984.59
2024-01-15T22:53:11.884Z,97994.16
2024-01-15T22:58:33.987Z,97998.50
2024-01-15T23:03:56.315Z,98001.59
2024-01-15T23:09:18.861Z,98006.13
2024-01-15T23:14:40.891Z,98011.31
2024-01-15T23:20:02.972Z,98015.78
2024-01-15T23:25:25.006Z,98014.09
2024-01-15T23:30:46.890Z,98026.03
2024-01-15T23:36:09.870Z,98031.97
2024-01-15T23:41:32.584Z,98027.59
2024-01-15T23:46:54.457Z,98042.09
2024-01-15T23:52:16.373Z,98036.78
2024-01-15T23:57:38.183Z,98039.41
